createdAt,value
2022-08-26T00:09:37.386Z,20.43
2022-08-26T00:24:33.326Z,20.49
2022-08-26T00:39:29.795Z,20.58
2022-08-26T00:54:26.863Z,21.83
2022-08-26T01:09:22.538Z,22.08
2022-08-26T01:24:19.230Z,22.07
2022-08-26T01:39:15.479Z,21.97
2022-08-26T01:54:13.721Z,21.68
2022-08-26T02:09:08.020Z,21.47
2022-08-26T02:39:00.339Z,21.08
2022-08-26T02:53:56.560Z,20.87
2022-08-26T03:08:52.490Z,20.62
2022-08-26T03:23:48.186Z,20.42
2022-08-26T03:38:44.354Z,20.67
2022-08-26T03:53:40.766Z,20.72
2022-08-26T04:08:37.093Z,20.65
2022-08-26T04:23:33.270Z,20.65
2022-08-26T04:38:29.814Z,20.68
2022-08-26T04:53:26.127Z,20.74
2022-08-26T05:08:22.479Z,20.8
2022-08-26T05:23:17.995Z,20.99
2022-08-26T05:38:14.332Z,21.01
2022-08-26T05:53:10.653Z,21.12
2022-08-26T06:08:07.054Z,21.19
2022-08-26T06:23:03.733Z,21.31
2022-08-26T06:38:00.181Z,21.64
2022-08-26T06:52:57.020Z,21.55
2022-08-26T07:07:53.350Z,21.68
2022-08-26T07:22:49.856Z,21.87
2022-08-26T07:37:45.923Z,21.9
2022-08-26T07:52:41.873Z,21.94
2022-08-26T08:07:45.202Z,22.29
2022-08-26T08:22:34.756Z,22.07
2022-08-26T08:37:30.823Z,22.22
2022-08-26T08:52:27.363Z,22.62
2022-08-26T09:07:23.726Z,22.41
2022-08-26T09:22:20.049Z,22.52
2022-08-26T09:37:16.137Z,22.5
2022-08-26T09:52:12.442Z,22.66
2022-08-26T10:07:08.625Z,22.47
2022-08-26T10:22:04.976Z,22.49
2022-08-26T10:37:10.924Z,22.47
2022-08-26T10:51:57.542Z,22.44
2022-08-26T11:06:53.979Z,22.47
2022-08-26T11:21:50.664Z,22.74
2022-08-26T11:36:46.808Z,23.02
2022-08-26T11:51:47.727Z,22.69
2022-08-26T12:06:43.509Z,22.82
2022-08-26T12:21:35.968Z,23.21
2022-08-26T12:36:32.647Z,24.35
2022-08-26T12:51:29.578Z,24.17
2022-08-26T13:06:25.712Z,23.1
2022-08-26T13:21:21.919Z,23.5
2022-08-26T13:36:17.765Z,23.92
2022-08-26T13:51:14.219Z,23.62
2022-08-26T14:06:10.250Z,24.41
2022-08-26T14:21:06.629Z,23.97
2022-08-26T14:36:02.215Z,23.87
2022-08-26T14:50:58.351Z,23.71
2022-08-26T15:05:54.672Z,23.71
2022-08-26T15:20:50.848Z,23.66
2022-08-26T15:35:46.463Z,23.21
2022-08-26T15:50:42.286Z,23.19
2022-08-26T16:05:38.673Z,23.24
2022-08-26T16:20:34.930Z,23.16
2022-08-26T16:35:30.515Z,22.92
2022-08-26T16:50:26.686Z,22.93
2022-08-26T17:05:22.768Z,22.8
2022-08-26T17:20:18.701Z,22.65
2022-08-26T17:35:14.804Z,22.06
2022-08-26T17:50:10.870Z,21.72
2022-08-26T18:05:06.647Z,21.44
2022-08-26T18:20:02.608Z,21.41
2022-08-26T18:34:58.807Z,21.21
2022-08-26T18:49:55.049Z,21.15
2022-08-26T19:04:51.032Z,21.11
2022-08-26T19:19:46.900Z,21.16
2022-08-26T19:34:43.223Z,21.16
2022-08-26T19:49:39.624Z,21.19
2022-08-26T20:04:36.035Z,21.08
2022-08-26T20:19:35.560Z,20.93
2022-08-26T20:34:28.835Z,20.74
2022-08-26T20:49:24.646Z,20.78
2022-08-26T22:04:04.489Z,20.35
2022-08-26T22:19:00.873Z,20.36
2022-08-26T22:33:56.801Z,20.37
2022-08-26T22:48:53.685Z,20.25
2022-08-26T23:03:48.864Z,20.22
2022-08-26T23:18:44.868Z,20.12
2022-08-26T23:33:40.804Z,19.92
2022-08-26T23:48:36.558Z,19.91
